Terminal Aerodrome Forecast
Issued by NWS Goodland, KS

Home | Current Version | Previous Version | Text Only | Print | Product List | Glossary On
Versions: 1 2 3 4 5 6 7 8 9 10 11 12 13 14 15 16
000
FTUS43 KGLD 152300
TAFGLD
TAF
KGLD 152320Z 1600/1624 21018G25KT P6SM BKN180
     FM160200 21014KT P6SM BKN180
     FM160800 25016KT P6SM BKN180
     FM161000 32018G28KT P6SM SCT130 BKN180
     FM161500 34021G32KT P6SM SCT250
     FM162300 36014KT P6SM SCT080 BKN180=

USA.gov is the U.S. government's official web portal to all federal, state and local government web resources and services.